createdAt,value
2018-07-28T00:02:22.122Z,7.87
2018-07-28T00:04:51.170Z,7.30
2018-07-28T00:07:20.832Z,7.37
2018-07-28T00:09:50.871Z,8.03
2018-07-28T00:12:20.147Z,7.92
2018-07-28T00:14:50.582Z,8.40
2018-07-28T00:17:19.818Z,7.90
2018-07-28T00:19:49.775Z,7.70
2018-07-28T00:22:19.570Z,7.75
2018-07-28T00:24:49.101Z,7.37
2018-07-28T00:27:18.584Z,7.08
2018-07-28T00:29:47.865Z,7.87
2018-07-28T00:32:16.701Z,8.43
2018-07-28T00:34:45.487Z,8.00
2018-07-28T00:37:13.871Z,7.87
2018-07-28T00:39:42.024Z,7.72
2018-07-28T00:42:10.112Z,7.55
2018-07-28T00:44:38.517Z,7.60
2018-07-28T00:47:06.535Z,7.30
2018-07-28T00:49:34.601Z,8.20
2018-07-28T00:52:02.979Z,6.75
2018-07-28T00:54:31.528Z,7.67
2018-07-28T00:57:00.455Z,7.95
2018-07-28T00:59:28.593Z,7.80
2018-07-28T01:01:57.110Z,7.67
2018-07-28T01:04:25.170Z,8.00
2018-07-28T01:06:53.206Z,7.92
2018-07-28T01:09:21.247Z,8.15
2018-07-28T01:11:49.312Z,7.92
2018-07-28T01:14:17.356Z,7.97
2018-07-28T01:16:45.391Z,7.67
2018-07-28T01:19:13.423Z,7.95
2018-07-28T01:21:41.806Z,7.20
2018-07-28T01:24:10.265Z,7.62
2018-07-28T01:26:38.333Z,8.20
2018-07-28T01:29:11.747Z,7.85
2018-07-28T01:31:39.791Z,7.55
2018-07-28T01:34:08.543Z,7.12
2018-07-28T01:36:36.590Z,7.78
2018-07-28T01:39:08.347Z,7.62
2018-07-28T01:41:36.410Z,6.45
2018-07-28T01:44:04.455Z,6.97
2018-07-28T01:46:32.504Z,6.83
2018-07-28T01:49:00.552Z,7.70
2018-07-28T01:51:28.619Z,7.08
2018-07-28T01:53:56.674Z,7.42
2018-07-28T01:56:25.025Z,7.90
2018-07-28T01:58:53.114Z,7.40
2018-07-28T02:01:22.602Z,7.42
2018-07-28T02:03:51.819Z,7.70
2018-07-28T02:06:20.856Z,7.62
2018-07-28T02:08:50.367Z,7.25
2018-07-28T02:11:19.080Z,6.62
2018-07-28T02:13:48.160Z,7.65
2018-07-28T02:16:17.167Z,6.40
2018-07-28T02:18:46.707Z,7.20
2018-07-28T02:21:14.952Z,6.83
2018-07-28T02:23:43.015Z,7.12
2018-07-28T02:26:11.067Z,7.40
2018-07-28T02:28:39.172Z,7.35
2018-07-28T02:31:07.467Z,6.87
2018-07-28T02:33:35.523Z,7.08
2018-07-28T02:36:03.572Z,6.83
2018-07-28T02:38:31.626Z,7.40
2018-07-28T02:41:00.272Z,7.17
2018-07-28T02:43:29.183Z,6.78
2018-07-28T02:45:58.658Z,7.42
2018-07-28T02:48:28.033Z,6.87
2018-07-28T02:50:56.691Z,7.17
2018-07-28T02:53:25.433Z,6.78
2018-07-28T02:55:54.132Z,7.15
2018-07-28T02:58:22.735Z,7.15
2018-07-28T03:00:51.975Z,7.30
2018-07-28T03:03:21.377Z,6.42
2018-07-28T03:05:51.120Z,6.58
2018-07-28T03:08:20.815Z,6.90
2018-07-28T03:10:49.986Z,6.42
2018-07-28T03:13:19.997Z,6.65
2018-07-28T03:15:49.194Z,7.28
2018-07-28T03:18:18.257Z,7.45
2018-07-28T03:20:47.785Z,6.47
2018-07-28T03:23:17.111Z,6.65
2018-07-28T03:25:46.002Z,6.65
2018-07-28T03:28:14.365Z,7.33
2018-07-28T03:30:42.420Z,7.28
2018-07-28T03:33:10.491Z,7.33
2018-07-28T03:35:38.801Z,6.78
2018-07-28T03:38:06.896Z,6.62
2018-07-28T03:40:34.975Z,7.33
2018-07-28T03:43:03.055Z,6.58
2018-07-28T03:45:31.335Z,7.08
2018-07-28T03:47:59.652Z,7.40
2018-07-28T03:50:28.285Z,7.47
2018-07-28T03:52:56.504Z,6.97
2018-07-28T03:55:25.213Z,6.65
2018-07-28T03:57:53.821Z,6.75
2018-07-28T04:00:22.673Z,7.20
2018-07-28T04:02:50.767Z,6.70
2018-07-28T04:05:18.843Z,6.85
2018-07-28T04:07:46.924Z,7.17
2018-07-28T04:10:14.962Z,6.95
2018-07-28T04:12:43.016Z,6.85
2018-07-28T04:15:14.095Z,6.50
2018-07-28T04:17:49.515Z,8.18
2018-07-28T04:20:17.530Z,7.60
2018-07-28T04:22:45.881Z,7.30
2018-07-28T04:25:13.948Z,6.65
2018-07-28T04:27:42.056Z,7.17
2018-07-28T04:30:10.087Z,6.97
2018-07-28T04:32:38.179Z,6.47
2018-07-28T04:35:06.455Z,6.78
2018-07-28T04:37:34.780Z,6.53
2018-07-28T04:40:02.853Z,6.53
2018-07-28T04:42:30.855Z,6.15
2018-07-28T04:44:58.920Z,7.20
2018-07-28T04:47:26.943Z,6.50
2018-07-28T04:49:55.277Z,6.55
2018-07-28T04:52:23.302Z,6.85
2018-07-28T04:54:52.274Z,7.92
2018-07-28T04:57:20.899Z,7.05
2018-07-28T04:59:49.851Z,7.25
2018-07-28T05:02:18.883Z,6.47
2018-07-28T05:04:48.227Z,6.90
2018-07-28T05:07:16.900Z,7.33
2018-07-28T05:09:45.666Z,6.22
2018-07-28T05:12:13.847Z,6.70
2018-07-28T05:14:42.171Z,5.92
2018-07-28T05:17:10.269Z,6.55
2018-07-28T05:19:38.451Z,6.10
2018-07-28T05:22:07.214Z,5.83
2018-07-28T05:24:35.604Z,6.62
2018-07-28T05:27:03.644Z,6.22
2018-07-28T05:29:31.672Z,5.60
2018-07-28T05:31:59.706Z,5.95
2018-07-28T05:34:27.735Z,6.65
2018-07-28T05:36:55.779Z,6.33
2018-07-28T05:39:23.815Z,6.20
2018-07-28T05:41:51.836Z,5.85
2018-07-28T05:44:19.859Z,5.53
2018-07-28T05:46:47.904Z,5.45
2018-07-28T05:49:15.955Z,5.40
2018-07-28T05:51:44.007Z,5.55
2018-07-28T05:54:13.100Z,5.72
2018-07-28T05:56:41.215Z,5.20
2018-07-28T05:59:09.299Z,5.87
2018-07-28T06:01:37.353Z,5.92
2018-07-28T06:04:05.621Z,6.47
2018-07-28T06:06:33.692Z,6.55
2018-07-28T06:09:02.016Z,6.40
2018-07-28T06:11:30.396Z,6.60
2018-07-28T06:13:58.823Z,6.15
2018-07-28T06:16:27.435Z,6.92
2018-07-28T06:18:56.081Z,5.87
2018-07-28T06:21:24.529Z,6.33
2018-07-28T06:23:53.528Z,6.67
2018-07-28T06:26:22.258Z,6.12
2018-07-28T06:28:51.640Z,5.85
2018-07-28T06:31:20.867Z,6.17
2018-07-28T06:33:50.666Z,6.17
2018-07-28T06:36:19.322Z,5.72
2018-07-28T06:38:47.377Z,5.83
2018-07-28T06:41:15.388Z,6.05
2018-07-28T06:43:43.414Z,5.72
2018-07-28T06:46:11.466Z,5.67
2018-07-28T06:48:39.495Z,5.40
2018-07-28T06:51:07.516Z,5.03
2018-07-28T06:53:35.656Z,5.55
2018-07-28T06:56:03.743Z,5.05
2018-07-28T06:58:31.899Z,5.22
2018-07-28T07:00:59.903Z,5.45
2018-07-28T07:03:28.043Z,5.50
2018-07-28T07:05:56.063Z,5.40
2018-07-28T07:08:24.092Z,5.00
2018-07-28T07:10:52.147Z,5.03
2018-07-28T07:13:20.187Z,5.17
2018-07-28T07:15:48.204Z,5.20
2018-07-28T07:18:16.267Z,5.35
2018-07-28T07:20:44.311Z,4.92
2018-07-28T07:23:12.362Z,5.10
2018-07-28T07:25:40.379Z,5.15
2018-07-28T07:28:08.439Z,4.50
2018-07-28T07:30:36.480Z,5.20
2018-07-28T07:33:04.523Z,5.37
2018-07-28T07:35:32.561Z,5.35
2018-07-28T07:38:00.607Z,5.10
2018-07-28T07:40:28.647Z,5.20
2018-07-28T07:42:56.679Z,5.10
2018-07-28T07:45:24.750Z,4.85
2018-07-28T07:47:52.790Z,5.15
2018-07-28T07:50:20.827Z,5.20
2018-07-28T07:52:48.843Z,5.62
2018-07-28T07:55:16.945Z,4.78
2018-07-28T07:57:44.955Z,5.17
2018-07-28T08:00:12.988Z,5.30
2018-07-28T08:02:41.043Z,5.20
2018-07-28T08:05:09.075Z,5.33
2018-07-28T08:07:37.127Z,5.10
2018-07-28T08:10:05.680Z,5.60
2018-07-28T08:12:33.736Z,6.03
2018-07-28T08:15:02.324Z,5.50
2018-07-28T08:17:30.351Z,5.20
2018-07-28T08:19:58.424Z,5.33
2018-07-28T08:22:26.494Z,5.40
2018-07-28T08:24:54.638Z,5.37
2018-07-28T08:27:22.689Z,5.58
2018-07-28T08:29:50.730Z,5.33
2018-07-28T08:32:18.728Z,5.42
2018-07-28T08:34:46.787Z,5.53
2018-07-28T08:37:14.919Z,5.33
2018-07-28T08:39:42.960Z,5.60
2018-07-28T08:42:13.584Z,5.40
2018-07-28T08:44:41.603Z,5.75
2018-07-28T08:47:10.159Z,6.10
2018-07-28T08:49:39.589Z,5.92
2018-07-28T08:52:07.631Z,5.65
2018-07-28T08:54:36.025Z,5.78
2018-07-28T08:57:04.770Z,6.00
2018-07-28T08:59:33.618Z,6.20
2018-07-28T09:02:02.312Z,6.60
2018-07-28T09:04:30.479Z,6.25
2018-07-28T09:06:59.616Z,6.37
2018-07-28T09:09:27.925Z,6.75
2018-07-28T09:11:56.397Z,5.87
2018-07-28T09:14:24.836Z,6.60
2018-07-28T09:16:54.163Z,6.70
2018-07-28T09:19:23.331Z,7.10
2018-07-28T09:21:52.088Z,7.47
2018-07-28T09:24:20.143Z,6.78
2018-07-28T09:26:48.150Z,7.10
2018-07-28T09:29:16.548Z,6.53
2018-07-28T09:31:44.612Z,6.62
2018-07-28T09:34:13.159Z,7.05
2018-07-28T09:36:44.040Z,7.55
2018-07-28T09:39:12.702Z,7.85
2018-07-28T09:41:41.838Z,8.00
2018-07-28T09:44:10.430Z,7.75
2018-07-28T09:46:38.493Z,8.20
2018-07-28T09:49:06.591Z,7.85
2018-07-28T09:51:34.624Z,7.60
2018-07-28T09:54:02.956Z,7.30
2018-07-28T09:56:31.564Z,8.50
2018-07-28T09:58:59.927Z,7.53
2018-07-28T10:01:27.956Z,7.60
2018-07-28T10:03:55.979Z,7.95
2018-07-28T11:25:56.889Z,7.67
2018-07-28T11:28:24.863Z,7.95
2018-07-28T11:30:52.983Z,7.53
2018-07-28T11:33:32.387Z,7.55
2018-07-28T11:36:11.856Z,7.33
2018-07-28T11:38:51.272Z,8.13
2018-07-28T11:41:30.668Z,7.20
2018-07-28T11:44:10.275Z,7.72
2018-07-28T11:46:38.290Z,6.62
2018-07-28T11:49:06.335Z,6.75
2018-07-28T11:51:34.490Z,6.35
2018-07-28T11:54:02.517Z,6.97
2018-07-28T11:56:30.535Z,6.70
2018-07-28T11:58:58.576Z,6.62
2018-07-28T12:01:26.612Z,6.65
2018-07-28T12:03:54.643Z,6.92
2018-07-28T12:06:22.685Z,6.35
2018-07-28T12:08:50.715Z,6.22
2018-07-28T12:11:18.728Z,6.80
2018-07-28T12:13:47.611Z,6.55
2018-07-28T12:16:15.615Z,6.47
2018-07-28T12:18:43.623Z,6.58
2018-07-28T12:21:11.697Z,6.33
2018-07-28T12:23:39.743Z,6.95
2018-07-28T12:26:07.779Z,6.78
2018-07-28T12:28:35.875Z,6.22
2018-07-28T12:31:03.879Z,7.08
2018-07-28T12:33:31.934Z,7.53
2018-07-28T12:35:59.999Z,5.95
2018-07-28T12:38:28.044Z,6.92
2018-07-28T12:40:56.127Z,6.90
2018-07-28T12:43:24.096Z,7.33
2018-07-28T12:45:52.178Z,7.08
2018-07-28T12:48:20.179Z,7.30
2018-07-28T12:50:49.044Z,6.85
2018-07-28T12:53:17.074Z,7.12
2018-07-28T12:55:45.095Z,7.72
2018-07-28T12:58:13.128Z,7.28
2018-07-28T13:00:41.135Z,7.20
2018-07-28T13:03:09.165Z,7.42
2018-07-28T13:05:37.175Z,6.67
2018-07-28T13:08:05.608Z,7.10
2018-07-28T13:10:33.679Z,6.80
2018-07-28T13:13:01.749Z,6.60
2018-07-28T13:15:29.779Z,6.50
2018-07-28T13:17:57.858Z,6.75
2018-07-28T13:20:25.934Z,6.42
2018-07-28T13:22:53.958Z,6.60
2018-07-28T13:25:22.096Z,5.85
2018-07-28T13:27:50.120Z,5.90
2018-07-28T13:30:18.147Z,6.20
2018-07-28T13:32:46.213Z,6.17
2018-07-28T13:35:14.260Z,6.40
2018-07-28T13:37:42.440Z,6.00
2018-07-28T13:40:10.460Z,5.75
2018-07-28T13:42:39.297Z,5.90
2018-07-28T13:45:07.466Z,6.08
2018-07-28T13:47:35.617Z,5.40
2018-07-28T13:50:03.983Z,6.33
2018-07-28T13:52:32.270Z,6.42
2018-07-28T13:55:00.411Z,6.28
2018-07-28T13:57:28.924Z,6.72
2018-07-28T13:59:57.364Z,6.70
2018-07-28T14:02:25.591Z,6.50
2018-07-28T14:04:53.983Z,5.87
2018-07-28T14:07:22.654Z,7.20
2018-07-28T14:09:51.509Z,6.22
2018-07-28T14:12:20.440Z,6.20
2018-07-28T14:14:49.008Z,6.67
2018-07-28T14:17:17.526Z,6.55
2018-07-28T14:19:45.846Z,6.45
2018-07-28T14:22:13.871Z,7.20
2018-07-28T14:24:40.724Z,6.37
2018-07-28T14:27:07.831Z,7.22
2018-07-28T14:29:34.667Z,7.15
2018-07-28T14:32:01.564Z,7.37
2018-07-28T14:34:28.703Z,6.62
2018-07-28T14:36:55.620Z,7.08
2018-07-28T14:39:22.472Z,7.25
2018-07-28T14:41:49.570Z,6.08
2018-07-28T14:44:16.379Z,6.08
2018-07-28T14:46:43.195Z,7.00
2018-07-28T14:49:10.287Z,6.33
2018-07-28T14:51:37.136Z,5.83
2018-07-28T14:54:03.980Z,5.55
2018-07-28T14:56:30.792Z,5.92
2018-07-28T14:58:57.635Z,6.17
2018-07-28T15:01:24.580Z,6.62
2018-07-28T15:03:51.313Z,6.28
2018-07-28T15:06:18.190Z,6.72
2018-07-28T15:08:45.009Z,6.62
2018-07-28T15:11:11.928Z,6.55
2018-07-28T15:13:38.743Z,6.53
2018-07-28T15:16:05.819Z,6.85
2018-07-28T15:18:32.659Z,6.92
2018-07-28T15:20:59.555Z,7.10
2018-07-28T15:23:26.430Z,7.83
2018-07-28T15:25:53.291Z,7.22
2018-07-28T15:28:20.135Z,6.58
2018-07-28T15:30:47.012Z,7.10
2018-07-28T15:33:13.831Z,6.67
2018-07-28T15:35:40.973Z,7.10
2018-07-28T15:38:07.830Z,7.35
2018-07-28T15:40:34.773Z,6.80
2018-07-28T15:43:01.953Z,6.80
2018-07-28T15:45:28.914Z,6.62
2018-07-28T15:47:55.803Z,6.40
2018-07-28T15:50:22.691Z,6.45
2018-07-28T15:52:49.539Z,5.95
2018-07-28T15:55:16.368Z,6.47
2018-07-28T15:57:43.485Z,7.00
2018-07-28T16:00:10.334Z,6.55
2018-07-28T16:02:37.277Z,6.80
2018-07-28T16:05:04.159Z,7.03
2018-07-28T16:07:30.967Z,7.30
2018-07-28T16:09:57.775Z,7.92
2018-07-28T16:12:24.623Z,7.33
2018-07-28T16:14:51.459Z,6.30
2018-07-28T16:17:18.258Z,6.83
2018-07-28T16:19:45.129Z,7.12
2018-07-28T16:22:12.008Z,7.45
2018-07-28T16:24:38.954Z,7.08
2018-07-28T16:27:05.783Z,7.47
2018-07-28T16:29:32.634Z,7.58
2018-07-28T16:31:59.802Z,7.30
2018-07-28T16:34:27.243Z,6.75
2018-07-28T16:36:54.094Z,6.72
2018-07-28T16:39:20.929Z,7.20
2018-07-28T16:41:47.799Z,7.08
2018-07-28T16:44:14.621Z,6.85
2018-07-28T16:46:41.504Z,6.47
2018-07-28T16:49:08.283Z,7.10
2018-07-28T16:51:35.143Z,6.55
2018-07-28T16:54:01.975Z,7.33
2018-07-28T16:56:28.804Z,7.55
2018-07-28T16:58:55.667Z,5.58
2018-07-28T17:01:22.547Z,5.22
2018-07-28T17:03:49.408Z,5.55
2018-07-28T17:06:16.647Z,7.10
2018-07-28T17:08:43.485Z,5.67
2018-07-28T17:11:10.291Z,6.50
2018-07-28T17:13:37.176Z,6.37
2018-07-28T17:16:04.174Z,7.05
2018-07-28T17:18:31.011Z,7.10
2018-07-28T17:20:57.859Z,7.62
2018-07-28T17:23:24.734Z,7.10
2018-07-28T17:25:51.548Z,7.47
2018-07-28T17:28:18.386Z,8.23
2018-07-28T17:30:45.301Z,8.48
2018-07-28T17:33:12.087Z,7.65
2018-07-28T17:35:38.927Z,7.83
2018-07-28T17:38:05.999Z,8.35
2018-07-28T17:40:32.837Z,7.28
2018-07-28T17:42:59.685Z,5.97
2018-07-28T17:45:26.507Z,6.05
2018-07-28T17:47:53.447Z,6.67
2018-07-28T17:50:20.373Z,5.65
2018-07-28T17:52:47.222Z,6.00
2018-07-28T17:55:14.084Z,5.37
2018-07-28T17:57:40.901Z,4.60
2018-07-28T18:00:08.169Z,5.37
2018-07-28T18:02:35.003Z,5.28
2018-07-28T18:05:01.865Z,4.92
2018-07-28T18:07:28.719Z,6.12
2018-07-28T18:09:55.584Z,6.17
2018-07-28T18:12:22.443Z,5.42
2018-07-28T18:14:49.356Z,6.40
2018-07-28T18:17:16.208Z,5.95
2018-07-28T18:19:43.043Z,10.95
2018-07-28T18:22:09.879Z,7.62
2018-07-28T18:24:36.743Z,7.37
2018-07-28T18:27:03.625Z,7.60
2018-07-28T18:29:30.443Z,8.25
2018-07-28T18:31:57.322Z,9.23
2018-07-28T18:34:24.152Z,7.35
2018-07-28T18:36:50.975Z,7.60
2018-07-28T18:39:17.784Z,7.70
2018-07-28T18:41:44.631Z,6.50
2018-07-28T18:44:11.460Z,7.50
2018-07-28T18:46:38.356Z,8.35
2018-07-28T18:49:05.173Z,8.98
2018-07-28T18:51:32.262Z,8.00
2018-07-28T18:53:59.082Z,7.25
2018-07-28T18:56:26.619Z,7.50
2018-07-28T18:58:53.579Z,7.97
2018-07-28T19:01:20.423Z,8.00
2018-07-28T19:03:47.424Z,8.28
2018-07-28T19:06:14.938Z,7.55
2018-07-28T19:08:41.868Z,8.00
2018-07-28T19:11:08.716Z,8.85
2018-07-28T19:13:41.224Z,9.15
2018-07-28T19:16:08.064Z,8.10
2018-07-28T19:18:40.800Z,8.35
2018-07-28T19:21:07.775Z,7.95
2018-07-28T19:23:40.521Z,8.05
2018-07-28T19:26:07.365Z,7.72
2018-07-28T19:29:39.853Z,8.15
2018-07-28T19:32:06.720Z,7.08
2018-07-28T19:34:33.595Z,6.37
2018-07-28T19:37:06.192Z,5.95
2018-07-28T19:39:33.012Z,6.87
2018-07-28T19:42:05.552Z,6.78
2018-07-28T19:44:32.376Z,6.22
2018-07-28T19:46:59.316Z,7.17
2018-07-28T19:49:26.166Z,7.45
2018-07-28T19:51:53.007Z,7.47
2018-07-28T19:54:19.887Z,7.33
2018-07-28T19:56:46.734Z,8.43
2018-07-28T19:59:13.823Z,7.12
2018-07-28T20:01:40.652Z,6.97
2018-07-28T20:04:07.512Z,7.37
2018-07-28T20:06:34.589Z,7.37
2018-07-28T20:09:01.441Z,7.05
2018-07-28T20:11:28.393Z,7.83
2018-07-28T20:13:55.510Z,7.25
2018-07-28T20:16:22.977Z,7.33
2018-07-28T20:18:50.153Z,8.03
2018-07-28T20:21:17.320Z,7.75
2018-07-28T20:23:44.487Z,6.53
2018-07-28T20:26:11.935Z,8.58
2018-07-28T20:28:38.811Z,7.80
2018-07-28T20:31:05.744Z,7.78
2018-07-28T20:33:32.803Z,8.20
2018-07-28T20:35:59.704Z,7.65
2018-07-28T20:38:26.989Z,7.53
2018-07-28T20:40:54.094Z,8.20
2018-07-28T20:43:21.309Z,7.90
2018-07-28T20:45:49.135Z,7.33
2018-07-28T20:48:16.905Z,7.00
2018-07-28T20:50:43.845Z,7.20
2018-07-28T20:53:10.712Z,7.10
2018-07-28T20:55:37.547Z,7.50
2018-07-28T20:58:04.455Z,7.90
2018-07-28T21:00:31.299Z,6.72
2018-07-28T21:02:58.199Z,9.15
2018-07-28T21:05:25.011Z,8.60
2018-07-28T21:07:51.467Z,9.38
2018-07-28T21:10:18.331Z,8.08
2018-07-28T21:12:45.176Z,7.40
2018-07-28T21:15:12.001Z,9.05
2018-07-28T21:20:16.591Z,7.55
2018-07-28T21:22:44.716Z,7.90
2018-07-28T21:25:12.763Z,8.98
2018-07-28T21:27:40.881Z,8.90
2018-07-28T21:30:09.031Z,7.78
2018-07-28T21:32:37.159Z,8.48
2018-07-28T21:35:05.215Z,8.70
2018-07-28T21:37:33.332Z,8.15
2018-07-28T21:40:01.669Z,8.00
2018-07-28T21:42:29.786Z,7.75
2018-07-28T21:44:58.064Z,8.28
2018-07-28T21:47:26.315Z,8.60
2018-07-28T21:49:54.634Z,8.70
2018-07-28T21:52:23.305Z,7.97
2018-07-28T21:54:58.228Z,8.68
2018-07-28T21:57:26.580Z,8.73
2018-07-28T21:59:54.973Z,8.63
2018-07-28T22:02:23.208Z,7.90
2018-07-28T22:04:51.276Z,7.85
2018-07-28T22:07:19.308Z,7.70
2018-07-28T22:09:47.324Z,7.80
2018-07-28T22:12:15.371Z,7.67
2018-07-28T22:14:43.398Z,8.30
2018-07-28T22:17:11.458Z,6.85
2018-07-28T22:19:39.626Z,7.08
2018-07-28T22:22:07.660Z,7.80
2018-07-28T22:24:35.739Z,8.15
2018-07-28T22:27:03.775Z,7.72
2018-07-28T22:29:31.807Z,7.20
2018-07-28T22:31:59.834Z,7.83
2018-07-28T22:34:27.869Z,9.13
2018-07-28T22:36:55.895Z,7.03
2018-07-28T22:39:24.280Z,8.28
2018-07-28T22:41:52.293Z,7.83
2018-07-28T22:44:20.315Z,8.15
2018-07-28T22:46:48.367Z,8.88
2018-07-28T22:49:16.517Z,7.60
2018-07-28T22:51:44.606Z,7.45
2018-07-28T22:54:12.643Z,8.30
2018-07-28T22:56:40.970Z,7.83
2018-07-28T22:59:09.014Z,8.55
2018-07-28T23:01:37.051Z,9.40
2018-07-28T23:04:05.103Z,8.25
2018-07-28T23:06:33.136Z,9.40
2018-07-28T23:09:01.240Z,8.23
2018-07-28T23:11:29.403Z,10.30
2018-07-28T23:13:57.575Z,8.93
2018-07-28T23:16:25.735Z,9.63
2018-07-28T23:18:53.919Z,12.05
2018-07-28T23:21:22.529Z,11.88
2018-07-28T23:23:50.676Z,11.70
2018-07-28T23:26:19.078Z,9.60
2018-07-28T23:28:47.518Z,10.95
2018-07-28T23:31:15.678Z,10.50
2018-07-28T23:33:43.915Z,10.28
2018-07-28T23:36:11.999Z,9.93
2018-07-28T23:38:40.052Z,9.60
2018-07-28T23:41:08.263Z,10.48
2018-07-28T23:43:36.325Z,11.20
2018-07-28T23:46:04.404Z,13.43
2018-07-28T23:48:32.479Z,11.93
2018-07-28T23:51:00.692Z,11.78
2018-07-28T23:53:28.830Z,11.57
2018-07-28T23:55:57.110Z,11.57
2018-07-28T23:58:25.335Z,11.00
